sensor_id;sensor_type;location;lat;lon;timestamp;P1;durP1;ratioP1;P2;durP2;ratioP2
66494;SDS011;53319;51.982;5.916;2022-08-01T00:00:07;20.45;;;14.95;;
66494;SDS011;53319;51.982;5.916;2022-08-01T00:02:37;16.10;;;13.38;;
66494;SDS011;53319;51.982;5.916;2022-08-01T00:05:07;19.48;;;14.10;;
66494;SDS011;53319;51.982;5.916;2022-08-01T00:07:37;20.92;;;14.57;;
66494;SDS011;53319;51.982;5.916;2022-08-01T00:10:10;21.17;;;14.25;;
66494;SDS011;53319;51.982;5.916;2022-08-01T00:12:40;22.35;;;15.27;;
66494;SDS011;53319;51.982;5.916;2022-08-01T00:15:11;24.38;;;15.85;;
66494;SDS011;53319;51.982;5.916;2022-08-01T00:17:42;22.92;;;15.82;;
66494;SDS011;53319;51.982;5.916;2022-08-01T00:20:12;21.45;;;15.27;;
66494;SDS011;53319;51.982;5.916;2022-08-01T00:22:42;23.73;;;16.05;;
66494;SDS011;53319;51.982;5.916;2022-08-01T00:25:14;21.52;;;15.77;;
66494;SDS011;53319;51.982;5.916;2022-08-01T00:27:42;25.13;;;16.25;;
66494;SDS011;53319;51.982;5.916;2022-08-01T00:30:11;22.67;;;16.52;;
66494;SDS011;53319;51.982;5.916;2022-08-01T00:32:40;22.00;;;15.57;;
66494;SDS011;53319;51.982;5.916;2022-08-01T00:35:10;22.60;;;15.77;;
66494;SDS011;53319;51.982;5.916;2022-08-01T00:37:39;22.15;;;15.77;;
66494;SDS011;53319;51.982;5.916;2022-08-01T00:40:09;22.80;;;16.23;;
66494;SDS011;53319;51.982;5.916;2022-08-01T00:42:41;22.63;;;16.23;;
66494;SDS011;53319;51.982;5.916;2022-08-01T00:45:10;21.85;;;15.65;;
66494;SDS011;53319;51.982;5.916;2022-08-01T00:47:39;22.40;;;16.10;;
66494;SDS011;53319;51.982;5.916;2022-08-01T00:50:09;22.17;;;16.13;;
66494;SDS011;53319;51.982;5.916;2022-08-01T00:52:39;21.83;;;15.45;;
66494;SDS011;53319;51.982;5.916;2022-08-01T00:55:08;24.98;;;17.95;;
66494;SDS011;53319;51.982;5.916;2022-08-01T00:57:42;26.52;;;18.15;;
66494;SDS011;53319;51.982;5.916;2022-08-01T01:00:12;26.40;;;18.57;;
66494;SDS011;53319;51.982;5.916;2022-08-01T01:02:42;23.15;;;17.52;;
66494;SDS011;53319;51.982;5.916;2022-08-01T01:05:12;23.30;;;16.98;;
66494;SDS011;53319;51.982;5.916;2022-08-01T01:07:46;24.08;;;17.17;;
66494;SDS011;53319;51.982;5.916;2022-08-01T01:10:22;25.77;;;18.65;;
66494;SDS011;53319;51.982;5.916;2022-08-01T01:13:02;23.77;;;16.98;;
66494;SDS011;53319;51.982;5.916;2022-08-01T01:15:38;23.08;;;17.52;;
66494;SDS011;53319;51.982;5.916;2022-08-01T01:18:11;24.50;;;17.15;;
66494;SDS011;53319;51.982;5.916;2022-08-01T01:20:46;23.95;;;16.23;;
66494;SDS011;53319;51.982;5.916;2022-08-01T01:23:29;23.65;;;15.85;;
66494;SDS011;53319;51.982;5.916;2022-08-01T01:26:19;26.53;;;16.20;;
66494;SDS011;53319;51.982;5.916;2022-08-01T01:29:03;22.23;;;15.40;;
66494;SDS011;53319;51.982;5.916;2022-08-01T01:31:36;18.42;;;13.90;;
66494;SDS011;53319;51.982;5.916;2022-08-01T01:34:09;21.10;;;14.88;;
66494;SDS011;53319;51.982;5.916;2022-08-01T01:36:40;23.10;;;15.35;;
66494;SDS011;53319;51.982;5.916;2022-08-01T01:39:13;20.07;;;14.27;;
66494;SDS011;53319;51.982;5.916;2022-08-01T01:41:43;21.73;;;14.70;;
66494;SDS011;53319;51.982;5.916;2022-08-01T01:44:17;23.75;;;15.02;;
66494;SDS011;53319;51.982;5.916;2022-08-01T01:46:47;20.17;;;14.02;;
66494;SDS011;53319;51.982;5.916;2022-08-01T01:49:19;22.67;;;15.05;;
66494;SDS011;53319;51.982;5.916;2022-08-01T01:51:50;20.35;;;14.77;;
66494;SDS011;53319;51.982;5.916;2022-08-01T01:54:22;19.48;;;13.23;;
66494;SDS011;53319;51.982;5.916;2022-08-01T01:56:52;22.17;;;13.77;;
66494;SDS011;53319;51.982;5.916;2022-08-01T01:59:28;20.63;;;13.60;;
66494;SDS011;53319;51.982;5.916;2022-08-01T02:01:59;18.13;;;12.65;;
66494;SDS011;53319;51.982;5.916;2022-08-01T02:04:30;20.55;;;14.23;;
66494;SDS011;53319;51.982;5.916;2022-08-01T02:07:01;18.75;;;11.88;;
66494;SDS011;53319;51.982;5.916;2022-08-01T02:09:31;20.02;;;11.50;;
66494;SDS011;53319;51.982;5.916;2022-08-01T02:12:03;19.63;;;12.40;;
66494;SDS011;53319;51.982;5.916;2022-08-01T02:14:36;19.80;;;12.68;;
66494;SDS011;53319;51.982;5.916;2022-08-01T02:17:06;18.10;;;11.55;;
66494;SDS011;53319;51.982;5.916;2022-08-01T02:19:37;21.52;;;12.65;;
66494;SDS011;53319;51.982;5.916;2022-08-01T02:22:08;19.63;;;11.07;;
66494;SDS011;53319;51.982;5.916;2022-08-01T02:27:14;19.40;;;11.68;;
66494;SDS011;53319;51.982;5.916;2022-08-01T02:29:50;19.25;;;11.82;;
66494;SDS011;53319;51.982;5.916;2022-08-01T02:32:23;18.83;;;11.55;;
66494;SDS011;53319;51.982;5.916;2022-08-01T02:34:55;19.48;;;11.50;;
66494;SDS011;53319;51.982;5.916;2022-08-01T02:37:28;17.92;;;11.40;;
66494;SDS011;53319;51.982;5.916;2022-08-01T02:40:00;21.05;;;11.45;;
66494;SDS011;53319;51.982;5.916;2022-08-01T02:42:29;21.45;;;12.07;;
66494;SDS011;53319;51.982;5.916;2022-08-01T02:45:03;21.08;;;12.38;;
66494;SDS011;53319;51.982;5.916;2022-08-01T02:47:35;22.42;;;12.93;;
66494;SDS011;53319;51.982;5.916;2022-08-01T02:50:07;20.70;;;12.05;;
66494;SDS011;53319;51.982;5.916;2022-08-01T02:52:38;22.02;;;11.98;;
66494;SDS011;53319;51.982;5.916;2022-08-01T02:55:09;61.65;;;50.65;;
66494;SDS011;53319;51.982;5.916;2022-08-01T02:57:40;22.00;;;12.80;;
66494;SDS011;53319;51.982;5.916;2022-08-01T03:00:16;26.33;;;13.23;;
66494;SDS011;53319;51.982;5.916;2022-08-01T03:02:45;23.13;;;12.38;;
66494;SDS011;53319;51.982;5.916;2022-08-01T03:05:17;20.55;;;11.52;;
66494;SDS011;53319;51.982;5.916;2022-08-01T03:07:46;20.25;;;12.20;;
66494;SDS011;53319;51.982;5.916;2022-08-01T03:10:16;21.52;;;12.18;;
66494;SDS011;53319;51.982;5.916;2022-08-01T03:12:45;20.20;;;12.23;;
66494;SDS011;53319;51.982;5.916;2022-08-01T03:15:19;25.05;;;13.18;;
66494;SDS011;53319;51.982;5.916;2022-08-01T03:17:51;20.83;;;12.20;;
66494;SDS011;53319;51.982;5.916;2022-08-01T03:20:22;21.92;;;12.57;;
66494;SDS011;53319;51.982;5.916;2022-08-01T03:22:55;20.85;;;13.18;;
66494;SDS011;53319;51.982;5.916;2022-08-01T03:25:26;16.55;;;9.88;;
66494;SDS011;53319;51.982;5.916;2022-08-01T03:27:58;12.00;;;8.38;;
66494;SDS011;53319;51.982;5.916;2022-08-01T03:30:32;12.57;;;7.97;;
66494;SDS011;53319;51.982;5.916;2022-08-01T03:33:02;12.60;;;7.05;;
66494;SDS011;53319;51.982;5.916;2022-08-01T03:35:33;8.60;;;5.70;;
66494;SDS011;53319;51.982;5.916;2022-08-01T03:38:04;10.38;;;5.97;;
66494;SDS011;53319;51.982;5.916;2022-08-01T03:40:37;8.90;;;6.05;;
66494;SDS011;53319;51.982;5.916;2022-08-01T03:43:10;9.90;;;6.13;;
66494;SDS011;53319;51.982;5.916;2022-08-01T03:45:45;9.32;;;6.35;;
66494;SDS011;53319;51.982;5.916;2022-08-01T03:48:18;10.43;;;6.50;;
66494;SDS011;53319;51.982;5.916;2022-08-01T03:50:51;9.38;;;7.03;;
66494;SDS011;53319;51.982;5.916;2022-08-01T03:53:22;9.32;;;6.28;;
66494;SDS011;53319;51.982;5.916;2022-08-01T03:55:53;9.77;;;7.18;;
66494;SDS011;53319;51.982;5.916;2022-08-01T03:58:24;10.43;;;7.25;;
66494;SDS011;53319;51.982;5.916;2022-08-01T04:00:56;11.48;;;8.35;;
66494;SDS011;53319;51.982;5.916;2022-08-01T04:03:26;11.75;;;7.65;;
66494;SDS011;53319;51.982;5.916;2022-08-01T04:05:56;9.45;;;7.25;;
66494;SDS011;53319;51.982;5.916;2022-08-01T04:08:33;14.25;;;7.13;;
66494;SDS011;53319;51.982;5.916;2022-08-01T04:11:02;11.07;;;7.00;;
66494;SDS011;53319;51.982;5.916;2022-08-01T04:13:33;9.52;;;6.75;;
66494;SDS011;53319;51.982;5.916;2022-08-01T04:16:04;10.52;;;7.07;;
66494;SDS011;53319;51.982;5.916;2022-08-01T04:18:34;10.40;;;7.47;;
66494;SDS011;53319;51.982;5.916;2022-08-01T04:21:02;10.93;;;7.78;;
66494;SDS011;53319;51.982;5.916;2022-08-01T04:23:31;11.63;;;8.10;;
66494;SDS011;53319;51.982;5.916;2022-08-01T04:26:03;10.38;;;7.68;;
66494;SDS011;53319;51.982;5.916;2022-08-01T04:28:34;15.35;;;10.20;;
66494;SDS011;53319;51.982;5.916;2022-08-01T04:31:08;15.23;;;9.82;;
66494;SDS011;53319;51.982;5.916;2022-08-01T04:33:40;16.40;;;10.85;;
66494;SDS011;53319;51.982;5.916;2022-08-01T04:36:12;15.95;;;11.30;;
66494;SDS011;53319;51.982;5.916;2022-08-01T04:38:42;13.25;;;10.48;;
66494;SDS011;53319;51.982;5.916;2022-08-01T04:41:14;18.05;;;11.15;;
66494;SDS011;53319;51.982;5.916;2022-08-01T04:43:45;19.42;;;11.95;;
66494;SDS011;53319;51.982;5.916;2022-08-01T04:46:16;16.48;;;11.40;;
66494;SDS011;53319;51.982;5.916;2022-08-01T04:48:47;16.63;;;11.48;;
66494;SDS011;53319;51.982;5.916;2022-08-01T04:51:17;17.60;;;12.00;;
66494;SDS011;53319;51.982;5.916;2022-08-01T04:53:48;18.33;;;11.77;;
66494;SDS011;53319;51.982;5.916;2022-08-01T04:56:17;15.63;;;11.60;;
66494;SDS011;53319;51.982;5.916;2022-08-01T04:58:46;17.77;;;12.63;;
66494;SDS011;53319;51.982;5.916;2022-08-01T05:01:38;16.45;;;11.80;;
66494;SDS011;53319;51.982;5.916;2022-08-01T05:04:07;17.27;;;12.65;;
66494;SDS011;53319;51.982;5.916;2022-08-01T05:06:36;17.73;;;12.55;;
66494;SDS011;53319;51.982;5.916;2022-08-01T05:09:05;17.67;;;12.02;;
66494;SDS011;53319;51.982;5.916;2022-08-01T05:11:34;18.05;;;11.63;;
66494;SDS011;53319;51.982;5.916;2022-08-01T05:14:03;14.82;;;11.50;;
66494;SDS011;53319;51.982;5.916;2022-08-01T05:16:32;14.05;;;10.48;;
66494;SDS011;53319;51.982;5.916;2022-08-01T05:19:04;17.58;;;11.63;;
66494;SDS011;53319;51.982;5.916;2022-08-01T05:21:33;15.77;;;11.35;;
66494;SDS011;53319;51.982;5.916;2022-08-01T05:24:03;14.73;;;10.50;;
66494;SDS011;53319;51.982;5.916;2022-08-01T05:26:32;12.43;;;10.48;;
66494;SDS011;53319;51.982;5.916;2022-08-01T05:29:02;14.65;;;11.00;;
66494;SDS011;53319;51.982;5.916;2022-08-01T05:31:31;15.90;;;10.80;;
66494;SDS011;53319;51.982;5.916;2022-08-01T05:34:01;14.73;;;10.75;;
66494;SDS011;53319;51.982;5.916;2022-08-01T05:36:32;16.30;;;10.70;;
66494;SDS011;53319;51.982;5.916;2022-08-01T05:39:03;14.52;;;10.50;;
66494;SDS011;53319;51.982;5.916;2022-08-01T05:41:32;15.65;;;11.00;;
66494;SDS011;53319;51.982;5.916;2022-08-01T05:44:02;15.73;;;10.73;;
66494;SDS011;53319;51.982;5.916;2022-08-01T05:46:31;14.75;;;9.77;;
66494;SDS011;53319;51.982;5.916;2022-08-01T05:49:01;13.77;;;10.25;;
66494;SDS011;53319;51.982;5.916;2022-08-01T05:51:33;14.45;;;10.02;;
66494;SDS011;53319;51.982;5.916;2022-08-01T05:54:02;13.05;;;10.23;;
66494;SDS011;53319;51.982;5.916;2022-08-01T05:56:31;17.30;;;10.45;;
66494;SDS011;53319;51.982;5.916;2022-08-01T05:59:00;12.40;;;8.77;;
66494;SDS011;53319;51.982;5.916;2022-08-01T06:01:29;13.80;;;9.95;;
66494;SDS011;53319;51.982;5.916;2022-08-01T06:03:58;8.73;;;7.22;;
66494;SDS011;53319;51.982;5.916;2022-08-01T06:06:27;8.95;;;6.45;;
66494;SDS011;53319;51.982;5.916;2022-08-01T06:08:58;7.32;;;5.53;;
66494;SDS011;53319;51.982;5.916;2022-08-01T06:11:27;7.10;;;5.30;;
66494;SDS011;53319;51.982;5.916;2022-08-01T06:13:56;7.13;;;4.88;;
66494;SDS011;53319;51.982;5.916;2022-08-01T06:16:25;6.93;;;4.63;;
66494;SDS011;53319;51.982;5.916;2022-08-01T06:18:54;5.00;;;4.05;;
66494;SDS011;53319;51.982;5.916;2022-08-01T06:21:23;4.68;;;3.60;;
66494;SDS011;53319;51.982;5.916;2022-08-01T06:23:52;3.40;;;2.97;;
66494;SDS011;53319;51.982;5.916;2022-08-01T06:26:23;5.40;;;2.92;;
66494;SDS011;53319;51.982;5.916;2022-08-01T06:28:52;3.53;;;2.60;;
66494;SDS011;53319;51.982;5.916;2022-08-01T06:31:21;4.68;;;1.95;;
66494;SDS011;53319;51.982;5.916;2022-08-01T06:33:50;3.15;;;1.88;;
66494;SDS011;53319;51.982;5.916;2022-08-01T06:36:19;4.25;;;1.90;;
66494;SDS011;53319;51.982;5.916;2022-08-01T06:38:47;4.13;;;2.00;;
66494;SDS011;53319;51.982;5.916;2022-08-01T06:41:16;1.67;;;1.52;;
66494;SDS011;53319;51.982;5.916;2022-08-01T06:43:48;2.90;;;1.70;;
66494;SDS011;53319;51.982;5.916;2022-08-01T06:46:17;2.45;;;1.60;;
66494;SDS011;53319;51.982;5.916;2022-08-01T06:48:45;2.72;;;1.75;;
66494;SDS011;53319;51.982;5.916;2022-08-01T06:51:14;2.38;;;1.80;;
66494;SDS011;53319;51.982;5.916;2022-08-01T06:53:45;2.47;;;1.98;;
66494;SDS011;53319;51.982;5.916;2022-08-01T06:56:14;2.42;;;1.80;;
66494;SDS011;53319;51.982;5.916;2022-08-01T06:58:43;3.03;;;2.50;;
66494;SDS011;53319;51.982;5.916;2022-08-01T07:01:14;3.40;;;2.40;;
66494;SDS011;53319;51.982;5.916;2022-08-01T07:03:43;3.25;;;2.05;;
66494;SDS011;53319;51.982;5.916;2022-08-01T07:06:12;3.47;;;1.88;;
66494;SDS011;53319;51.982;5.916;2022-08-01T07:08:41;3.25;;;2.13;;
66494;SDS011;53319;51.982;5.916;2022-08-01T07:11:10;4.28;;;2.80;;
66494;SDS011;53319;51.982;5.916;2022-08-01T07:13:39;2.58;;;2.17;;
66494;SDS011;53319;51.982;5.916;2022-08-01T07:16:08;3.58;;;2.13;;
66494;SDS011;53319;51.982;5.916;2022-08-01T07:18:39;3.97;;;2.35;;
66494;SDS011;53319;51.982;5.916;2022-08-01T07:21:08;2.45;;;2.08;;
66494;SDS011;53319;51.982;5.916;2022-08-01T07:23:37;2.45;;;2.20;;
66494;SDS011;53319;51.982;5.916;2022-08-01T07:26:06;2.58;;;2.08;;
66494;SDS011;53319;51.982;5.916;2022-08-01T07:28:35;3.40;;;1.92;;
66494;SDS011;53319;51.982;5.916;2022-08-01T07:31:04;2.35;;;2.13;;
66494;SDS011;53319;51.982;5.916;2022-08-01T07:33:33;3.65;;;2.28;;
66494;SDS011;53319;51.982;5.916;2022-08-01T07:36:05;2.80;;;2.15;;
66494;SDS011;53319;51.982;5.916;2022-08-01T07:38:34;2.95;;;2.30;;
66494;SDS011;53319;51.982;5.916;2022-08-01T07:41:03;3.08;;;1.85;;
66494;SDS011;53319;51.982;5.916;2022-08-01T07:43:31;3.22;;;2.40;;
66494;SDS011;53319;51.982;5.916;2022-08-01T07:46:01;4.95;;;2.30;;
66494;SDS011;53319;51.982;5.916;2022-08-01T07:48:30;4.28;;;2.40;;
66494;SDS011;53319;51.982;5.916;2022-08-01T07:50:59;5.00;;;2.95;;
66494;SDS011;53319;51.982;5.916;2022-08-01T07:53:31;4.45;;;2.58;;
66494;SDS011;53319;51.982;5.916;2022-08-01T07:56:00;4.82;;;2.67;;
66494;SDS011;53319;51.982;5.916;2022-08-01T07:58:30;5.30;;;2.70;;
66494;SDS011;53319;51.982;5.916;2022-08-01T08:00:59;3.40;;;2.60;;
66494;SDS011;53319;51.982;5.916;2022-08-01T08:03:28;4.53;;;2.95;;
66494;SDS011;53319;51.982;5.916;2022-08-01T08:05:57;3.80;;;2.75;;
66494;SDS011;53319;51.982;5.916;2022-08-01T08:08:26;4.82;;;2.88;;
66494;SDS011;53319;51.982;5.916;2022-08-01T08:10:57;4.82;;;2.85;;
66494;SDS011;53319;51.982;5.916;2022-08-01T08:13:26;4.68;;;2.80;;
66494;SDS011;53319;51.982;5.916;2022-08-01T08:15:55;6.13;;;3.05;;
66494;SDS011;53319;51.982;5.916;2022-08-01T08:18:25;5.30;;;3.22;;
66494;SDS011;53319;51.982;5.916;2022-08-01T08:20:54;5.93;;;3.08;;
66494;SDS011;53319;51.982;5.916;2022-08-01T08:23:23;4.22;;;2.92;;
66494;SDS011;53319;51.982;5.916;2022-08-01T08:26:07;5.57;;;3.20;;
66494;SDS011;53319;51.982;5.916;2022-08-01T08:28:36;3.97;;;2.67;;
66494;SDS011;53319;51.982;5.916;2022-08-01T08:31:05;4.25;;;2.55;;
66494;SDS011;53319;51.982;5.916;2022-08-01T08:33:34;5.63;;;3.10;;
66494;SDS011;53319;51.982;5.916;2022-08-01T08:36:03;3.90;;;2.80;;
66494;SDS011;53319;51.982;5.916;2022-08-01T08:38:32;4.07;;;2.90;;
66494;SDS011;53319;51.982;5.916;2022-08-01T08:41:01;3.55;;;3.10;;
66494;SDS011;53319;51.982;5.916;2022-08-01T08:43:33;5.63;;;3.10;;
66494;SDS011;53319;51.982;5.916;2022-08-01T08:46:03;5.68;;;3.00;;
66494;SDS011;53319;51.982;5.916;2022-08-01T08:48:36;5.18;;;3.10;;
66494;SDS011;53319;51.982;5.916;2022-08-01T08:51:07;3.75;;;3.10;;
66494;SDS011;53319;51.982;5.916;2022-08-01T08:53:38;4.32;;;2.95;;
66494;SDS011;53319;51.982;5.916;2022-08-01T08:56:10;5.60;;;3.45;;
66494;SDS011;53319;51.982;5.916;2022-08-01T08:58:44;4.25;;;3.00;;
66494;SDS011;53319;51.982;5.916;2022-08-01T09:01:13;5.20;;;2.80;;
66494;SDS011;53319;51.982;5.916;2022-08-01T09:03:43;5.70;;;2.80;;
66494;SDS011;53319;51.982;5.916;2022-08-01T09:06:12;4.13;;;2.92;;
66494;SDS011;53319;51.982;5.916;2022-08-01T09:08:41;7.03;;;3.33;;
66494;SDS011;53319;51.982;5.916;2022-08-01T09:11:10;5.63;;;3.03;;
66494;SDS011;53319;51.982;5.916;2022-08-01T09:13:39;6.35;;;3.60;;
66494;SDS011;53319;51.982;5.916;2022-08-01T09:16:15;9.20;;;4.20;;
66494;SDS011;53319;51.982;5.916;2022-08-01T09:18:45;12.20;;;4.70;;
66494;SDS011;53319;51.982;5.916;2022-08-01T09:21:15;7.03;;;4.10;;
66494;SDS011;53319;51.982;5.916;2022-08-01T09:23:46;8.00;;;4.75;;
66494;SDS011;53319;51.982;5.916;2022-08-01T09:26:18;6.47;;;4.60;;
66494;SDS011;53319;51.982;5.916;2022-08-01T09:28:50;9.15;;;5.47;;
66494;SDS011;53319;51.982;5.916;2022-08-01T09:31:21;9.07;;;5.43;;
66494;SDS011;53319;51.982;5.916;2022-08-01T09:33:51;7.22;;;5.78;;
66494;SDS011;53319;51.982;5.916;2022-08-01T09:36:21;7.43;;;6.03;;
66494;SDS011;53319;51.982;5.916;2022-08-01T09:38:53;11.27;;;6.55;;
66494;SDS011;53319;51.982;5.916;2022-08-01T09:41:31;8.80;;;6.40;;
66494;SDS011;53319;51.982;5.916;2022-08-01T09:44:00;9.93;;;6.63;;
66494;SDS011;53319;51.982;5.916;2022-08-01T09:46:32;13.48;;;7.57;;
66494;SDS011;53319;51.982;5.916;2022-08-01T09:49:02;10.90;;;6.53;;
66494;SDS011;53319;51.982;5.916;2022-08-01T09:51:33;11.00;;;7.40;;
66494;SDS011;53319;51.982;5.916;2022-08-01T09:54:03;8.73;;;6.72;;
66494;SDS011;53319;51.982;5.916;2022-08-01T09:56:37;8.90;;;6.75;;
66494;SDS011;53319;51.982;5.916;2022-08-01T09:59:08;8.48;;;6.90;;
66494;SDS011;53319;51.982;5.916;2022-08-01T10:01:46;14.50;;;8.50;;
66494;SDS011;53319;51.982;5.916;2022-08-01T10:04:17;15.43;;;7.65;;
66494;SDS011;53319;51.982;5.916;2022-08-01T10:06:48;14.13;;;8.43;;
66494;SDS011;53319;51.982;5.916;2022-08-01T10:09:26;14.70;;;8.25;;
66494;SDS011;53319;51.982;5.916;2022-08-01T10:11:57;19.30;;;8.48;;
66494;SDS011;53319;51.982;5.916;2022-08-01T10:14:28;15.85;;;8.90;;
66494;SDS011;53319;51.982;5.916;2022-08-01T10:17:00;12.93;;;8.93;;
66494;SDS011;53319;51.982;5.916;2022-08-01T10:19:30;15.70;;;8.95;;
66494;SDS011;53319;51.982;5.916;2022-08-01T10:21:59;19.10;;;10.25;;
66494;SDS011;53319;51.982;5.916;2022-08-01T10:24:30;19.70;;;10.40;;
66494;SDS011;53319;51.982;5.916;2022-08-01T10:27:01;17.35;;;10.85;;
66494;SDS011;53319;51.982;5.916;2022-08-01T10:29:34;15.32;;;8.48;;
66494;SDS011;53319;51.982;5.916;2022-08-01T10:32:08;19.10;;;8.27;;
66494;SDS011;53319;51.982;5.916;2022-08-01T10:34:37;19.33;;;9.93;;
66494;SDS011;53319;51.982;5.916;2022-08-01T10:37:06;18.95;;;10.25;;
66494;SDS011;53319;51.982;5.916;2022-08-01T10:39:36;15.00;;;9.15;;
66494;SDS011;53319;51.982;5.916;2022-08-01T10:42:08;17.88;;;9.65;;
66494;SDS011;53319;51.982;5.916;2022-08-01T10:44:38;15.27;;;7.97;;
66494;SDS011;53319;51.982;5.916;2022-08-01T10:47:15;16.05;;;8.68;;
66494;SDS011;53319;51.982;5.916;2022-08-01T10:49:47;15.05;;;8.63;;
66494;SDS011;53319;51.982;5.916;2022-08-01T10:52:24;12.27;;;7.72;;
66494;SDS011;53319;51.982;5.916;2022-08-01T10:55:01;22.95;;;9.40;;
66494;SDS011;53319;51.982;5.916;2022-08-01T10:57:41;17.33;;;8.90;;
66494;SDS011;53319;51.982;5.916;2022-08-01T11:00:15;15.73;;;7.88;;
66494;SDS011;53319;51.982;5.916;2022-08-01T11:02:59;14.55;;;7.20;;
66494;SDS011;53319;51.982;5.916;2022-08-01T11:05:30;13.27;;;6.45;;
66494;SDS011;53319;51.982;5.916;2022-08-01T11:08:01;15.45;;;6.63;;
66494;SDS011;53319;51.982;5.916;2022-08-01T11:10:37;12.18;;;6.10;;
66494;SDS011;53319;51.982;5.916;2022-08-01T11:13:08;11.60;;;6.05;;
66494;SDS011;53319;51.982;5.916;2022-08-01T11:15:37;13.10;;;7.10;;
66494;SDS011;53319;51.982;5.916;2022-08-01T11:21:00;11.30;;;6.60;;
66494;SDS011;53319;51.982;5.916;2022-08-01T11:23:30;14.05;;;6.35;;
66494;SDS011;53319;51.982;5.916;2022-08-01T11:26:15;12.18;;;6.00;;
66494;SDS011;53319;51.982;5.916;2022-08-01T11:28:45;14.85;;;6.63;;
66494;SDS011;53319;51.982;5.916;2022-08-01T11:31:35;12.20;;;6.63;;
66494;SDS011;53319;51.982;5.916;2022-08-01T11:34:06;13.75;;;6.85;;
66494;SDS011;53319;51.982;5.916;2022-08-01T11:36:35;9.63;;;5.13;;
66494;SDS011;53319;51.982;5.916;2022-08-01T11:39:11;14.93;;;6.20;;
66494;SDS011;53319;51.982;5.916;2022-08-01T11:41:45;10.32;;;4.45;;
66494;SDS011;53319;51.982;5.916;2022-08-01T11:44:17;13.15;;;5.68;;
66494;SDS011;53319;51.982;5.916;2022-08-01T11:46:53;12.38;;;5.40;;
66494;SDS011;53319;51.982;5.916;2022-08-01T11:49:28;13.00;;;5.82;;
66494;SDS011;53319;51.982;5.916;2022-08-01T11:52:00;14.10;;;5.35;;
66494;SDS011;53319;51.982;5.916;2022-08-01T11:54:33;11.55;;;5.10;;
66494;SDS011;53319;51.982;5.916;2022-08-01T11:57:04;9.93;;;5.00;;
66494;SDS011;53319;51.982;5.916;2022-08-01T11:59:38;11.27;;;5.32;;
66494;SDS011;53319;51.982;5.916;2022-08-01T12:02:18;13.25;;;5.25;;
66494;SDS011;53319;51.982;5.916;2022-08-01T12:04:55;11.88;;;4.45;;
66494;SDS011;53319;51.982;5.916;2022-08-01T12:07:26;8.40;;;4.60;;
66494;SDS011;53319;51.982;5.916;2022-08-01T12:09:58;15.20;;;5.28;;
66494;SDS011;53319;51.982;5.916;2022-08-01T12:12:29;12.32;;;4.25;;
66494;SDS011;53319;51.982;5.916;2022-08-01T12:14:59;7.88;;;4.03;;
66494;SDS011;53319;51.982;5.916;2022-08-01T12:17:33;9.27;;;4.20;;
66494;SDS011;53319;51.982;5.916;2022-08-01T12:20:08;8.82;;;4.10;;
66494;SDS011;53319;51.982;5.916;2022-08-01T12:22:40;10.05;;;3.78;;
66494;SDS011;53319;51.982;5.916;2022-08-01T12:25:10;8.35;;;4.22;;
66494;SDS011;53319;51.982;5.916;2022-08-01T12:27:40;9.40;;;4.32;;
66494;SDS011;53319;51.982;5.916;2022-08-01T12:30:11;10.73;;;4.38;;
66494;SDS011;53319;51.982;5.916;2022-08-01T12:32:42;7.32;;;3.53;;
66494;SDS011;53319;51.982;5.916;2022-08-01T12:35:16;7.85;;;3.42;;
66494;SDS011;53319;51.982;5.916;2022-08-01T12:37:48;5.68;;;3.15;;
66494;SDS011;53319;51.982;5.916;2022-08-01T12:40:20;7.60;;;3.53;;
66494;SDS011;53319;51.982;5.916;2022-08-01T12:42:50;9.68;;;3.17;;
66494;SDS011;53319;51.982;5.916;2022-08-01T12:45:21;8.57;;;3.20;;
66494;SDS011;53319;51.982;5.916;2022-08-01T12:47:52;7.45;;;3.05;;
66494;SDS011;53319;51.982;5.916;2022-08-01T12:50:26;11.65;;;3.83;;
66494;SDS011;53319;51.982;5.916;2022-08-01T12:52:56;7.45;;;3.03;;
66494;SDS011;53319;51.982;5.916;2022-08-01T12:55:26;15.38;;;3.88;;
66494;SDS011;53319;51.982;5.916;2022-08-01T12:58:03;8.80;;;3.20;;
66494;SDS011;53319;51.982;5.916;2022-08-01T13:00:33;8.95;;;3.50;;
66494;SDS011;53319;51.982;5.916;2022-08-01T13:03:04;7.00;;;2.95;;
66494;SDS011;53319;51.982;5.916;2022-08-01T13:05:47;7.60;;;2.80;;
66494;SDS011;53319;51.982;5.916;2022-08-01T13:08:17;8.32;;;3.00;;
66494;SDS011;53319;51.982;5.916;2022-08-01T13:10:47;9.90;;;2.97;;
66494;SDS011;53319;51.982;5.916;2022-08-01T13:13:17;7.97;;;2.90;;
66494;SDS011;53319;51.982;5.916;2022-08-01T13:15:47;7.95;;;2.80;;
66494;SDS011;53319;51.982;5.916;2022-08-01T13:18:22;9.30;;;3.00;;
66494;SDS011;53319;51.982;5.916;2022-08-01T13:23:42;8.68;;;2.90;;
66494;SDS011;53319;51.982;5.916;2022-08-01T13:26:37;9.93;;;3.00;;
66494;SDS011;53319;51.982;5.916;2022-08-01T13:29:08;8.57;;;3.20;;
66494;SDS011;53319;51.982;5.916;2022-08-01T13:31:38;8.35;;;3.08;;
66494;SDS011;53319;51.982;5.916;2022-08-01T13:34:08;9.95;;;2.97;;
66494;SDS011;53319;51.982;5.916;2022-08-01T13:36:40;6.82;;;2.80;;
66494;SDS011;53319;51.982;5.916;2022-08-01T13:39:09;9.25;;;3.28;;
66494;SDS011;53319;51.982;5.916;2022-08-01T13:41:51;6.38;;;3.00;;
66494;SDS011;53319;51.982;5.916;2022-08-01T13:44:20;6.43;;;3.03;;
66494;SDS011;53319;51.982;5.916;2022-08-01T13:46:50;7.90;;;2.88;;
66494;SDS011;53319;51.982;5.916;2022-08-01T13:49:19;14.77;;;3.22;;
66494;SDS011;53319;51.982;5.916;2022-08-01T13:51:50;6.82;;;2.75;;
66494;SDS011;53319;51.982;5.916;2022-08-01T13:54:19;7.18;;;2.72;;
66494;SDS011;53319;51.982;5.916;2022-08-01T13:56:49;10.43;;;2.85;;
66494;SDS011;53319;51.982;5.916;2022-08-01T13:59:18;7.28;;;2.90;;
66494;SDS011;53319;51.982;5.916;2022-08-01T14:01:47;6.57;;;2.45;;
66494;SDS011;53319;51.982;5.916;2022-08-01T14:04:16;5.70;;;2.40;;
66494;SDS011;53319;51.982;5.916;2022-08-01T14:06:46;4.70;;;2.03;;
66494;SDS011;53319;51.982;5.916;2022-08-01T14:09:18;7.93;;;2.57;;
66494;SDS011;53319;51.982;5.916;2022-08-01T14:11:48;9.18;;;3.08;;
66494;SDS011;53319;51.982;5.916;2022-08-01T14:14:17;5.50;;;2.05;;
66494;SDS011;53319;51.982;5.916;2022-08-01T14:16:46;7.47;;;2.55;;
66494;SDS011;53319;51.982;5.916;2022-08-01T14:19:15;5.45;;;2.40;;
66494;SDS011;53319;51.982;5.916;2022-08-01T14:21:44;8.63;;;2.50;;
66494;SDS011;53319;51.982;5.916;2022-08-01T14:24:16;5.85;;;2.47;;
66494;SDS011;53319;51.982;5.916;2022-08-01T14:26:45;6.75;;;2.45;;
66494;SDS011;53319;51.982;5.916;2022-08-01T14:29:13;6.55;;;1.98;;
66494;SDS011;53319;51.982;5.916;2022-08-01T14:31:42;5.60;;;1.85;;
66494;SDS011;53319;51.982;5.916;2022-08-01T14:34:11;4.75;;;2.38;;
66494;SDS011;53319;51.982;5.916;2022-08-01T14:36:41;4.28;;;2.00;;
66494;SDS011;53319;51.982;5.916;2022-08-01T14:39:10;7.70;;;2.75;;
66494;SDS011;53319;51.982;5.916;2022-08-01T14:41:42;5.07;;;2.28;;
66494;SDS011;53319;51.982;5.916;2022-08-01T14:44:11;7.05;;;2.63;;
66494;SDS011;53319;51.982;5.916;2022-08-01T14:46:39;8.77;;;2.70;;
66494;SDS011;53319;51.982;5.916;2022-08-01T14:49:09;6.53;;;2.20;;
66494;SDS011;53319;51.982;5.916;2022-08-01T14:51:38;8.18;;;2.03;;
66494;SDS011;53319;51.982;5.916;2022-08-01T14:54:07;6.50;;;2.10;;
66494;SDS011;53319;51.982;5.916;2022-08-01T14:56:36;4.93;;;1.92;;
66494;SDS011;53319;51.982;5.916;2022-08-01T14:59:08;4.15;;;1.95;;
66494;SDS011;53319;51.982;5.916;2022-08-01T15:01:37;2.95;;;1.70;;
66494;SDS011;53319;51.982;5.916;2022-08-01T15:04:05;2.88;;;1.50;;
66494;SDS011;53319;51.982;5.916;2022-08-01T15:06:34;3.10;;;1.27;;